CET,Max TemperatureF,Mean TemperatureF,Min TemperatureF,Max Dew PointF,MeanDew PointF,Min DewpointF,Max Humidity, Mean Humidity, Min Humidity, Max Sea Level PressureIn, Mean Sea Level PressureIn, Min Sea Level PressureIn, Max VisibilityMiles, Mean VisibilityMiles, Min VisibilityMiles, Max Wind SpeedMPH, Mean Wind SpeedMPH, Max Gust SpeedMPH,PrecipitationIn, CloudCover, Events, WindDirDegrees
2012-11-1,33,30,27,34,32,30,100,100,97,29.53,29.36,29.27,1,0,0,25,14,40,0.02,,Fog-Snow,181
2012-11-2,32,30,28,31,30,25,100,97,86,29.83,29.66,29.53,2,0,0,30,22,46,0.02,,Fog,211
2012-11-3,33,30,28,34,32,29,100,100,97,29.89,29.87,29.83,0,0,0,26,22,43,0.00,,Fog,204
2012-11-4,41,37,33,41,36,30,100,100,98,29.89,29.78,29.53,0,0,0,25,17,38,0.12,,Fog-Rain-Snow,183
2012-11-5,41,34,28,42,30,10,100,83,29,29.74,29.55,29.42,1,0,0,36,22,53,0.16,,Fog-Rain-Snow,329
2012-11-6,32,28,23,18,15,10,74,55,37,30.01,29.87,29.77,6,5,2,21,6,,0.00,3,Snow,3
2012-11-7,32,26,21,19,11,-4,64,47,22,30.33,30.18,30.04,,,,17,9,,0.00,,,330
2012-11-8,39,34,30,23,21,18,65,56,41,30.30,30.20,30.06,19,19,19,16,10,,0.00,,,245
2012-11-9,41,36,31,25,19,14,70,48,27,30.09,30.07,30.04,19,19,19,16,10,,0.00,,,34
2012-11-10,32,31,30,32,30,23,100,91,59,30.04,29.95,29.86,19,2,0,33,15,46,0.16,,Fog-Rain,176
2012-11-11,38,34,30,37,35,30,100,100,97,30.04,29.87,29.80,1,0,0,33,18,54,1.10,,Fog-Rain-Snow,167
2012-11-12,39,36,34,38,36,32,100,95,87,30.24,30.14,30.04,6,1,0,14,8,,0.00,4,Fog,182
2012-11-13,37,35,33,36,32,27,100,88,68,30.39,30.31,30.24,12,5,0,6,2,,0.00,2,Fog,28
2012-11-14,37,34,30,31,20,9,100,60,21,30.39,30.29,30.24,9,4,0,13,6,,0.00,2,Fog,360
2012-11-15,42,38,35,14,-7,-22,41,14,4,30.21,30.15,30.12,,,,16,9,,0.00,,,24
2012-11-16,37,34,30,10,-1,-13,44,22,5,30.12,30.08,30.06,,,,13,6,,0.00,,,203
2012-11-17,34,31,26,21,11,4,74,42,22,30.04,29.98,29.95,,,,14,10,,0.00,,,198
2012-11-18,33,30,27,31,20,14,93,64,43,29.95,29.92,29.89,6,6,6,8,4,,0.00,3,,130
2012-11-19,38,35,32,36,29,25,100,79,51,30.04,29.99,29.95,19,8,6,8,5,,0.00,5,,59
2012-11-20,40,36,33,32,28,25,87,68,47,30.06,30.04,30.01,6,6,6,12,8,,0.00,1,,360
2012-11-21,41,38,36,34,24,13,87,54,21,30.12,30.08,30.06,,,,10,7,,0.00,,,122
2012-11-22,37,34,32,36,31,21,100,84,44,30.18,30.15,30.12,6,0,0,13,6,,0.00,8,Fog-Rain,126
2012-11-23,34,32,30,32,28,18,100,85,55,30.21,30.14,30.09,19,6,0,6,4,,0.00,6,Fog,241
2012-11-24,37,34,30,32,22,12,93,61,25,30.18,30.15,30.12,19,15,9,9,4,,0.00,8,,313
2012-11-25,35,32,30,33,30,26,100,89,71,30.12,30.09,30.06,19,8,0,17,9,,0.00,3,Fog,229
2012-11-26,34,32,31,34,33,32,100,100,99,30.06,29.97,29.86,0,0,0,29,20,38,0.03,,Fog-Rain,205
2012-11-27,31,30,30,33,31,28,100,99,93,29.86,29.73,29.62,0,0,0,30,21,43,0.28,,Fog-Rain-Snow,167
2012-11-28,31,30,28,30,29,27,100,95,86,29.62,29.39,29.18,0,0,0,30,15,44,0.79,,Fog-Snow,124
2012-11-29,28,22,15,27,21,12,93,86,75,29.24,29.19,29.15,19,1,0,30,20,44,0.04,3,Fog-Snow,195
2012-11-30,19,17,15,16,11,9,93,76,62,29.53,29.39,29.24,19,7,2,26,21,,0.00,5,Snow,2